Home > Products > Valid Products > TAF

000
FTUS43 KDVN 261100
TAFCID
TAF
KCID 261138Z 2612/2712 11009KT P6SM BKN060
     FM261500 10009KT 4SM -SHSN OVC030
     FM261900 06011KT 2SM -SN BR OVC012
      TEMPO 2620/2622 1SM -SN BR OVC007
     FM270000 35011KT 5SM -SN BR OVC006
     FM270400 32013KT P6SM OVC010=



000
FTUS43 KDVN 261100
TAFMLI
TAF
KMLI 261138Z 2612/2712 10007KT P6SM BKN080
     FM261900 12007KT 5SM -SN BR OVC025
     FM262200 07005KT 3SM -SN BR OVC009
     FM270500 34007KT P6SM OVC015=



000
FTUS43 KDVN 261100
TAFDBQ
TAF
KDBQ 261138Z 2612/2712 11007KT P6SM BKN070
      TEMPO 2612/2614 5SM BR
     FM262100 04007KT 5SM -SN BR OVC025
     FM270100 34008KT 3SM -SN BR OVC010
     FM270500 33012KT P6SM OVC012=



000
FTUS43 KDVN 261100
TAFBRL
TAF
KBRL 261138Z 2612/2712 12007KT P6SM BKN080
     FM261530 12010KT 4SM -SHSN OVC030
     FM261800 10008KT 2SM -SN BR OVC012
      TEMPO 2620/2622 1SM -SN BR OVC007
     FM262300 04006KT 5SM -SN BR OVC006
     FM270500 34010KT P6SM OVC010=



000
FTUS43 KDVN 260500
TAFMLI
TAF
KMLI 260520Z 2606/2706 11004KT P6SM SKC
     FM261200 12012KT P6SM BKN045
     FM262100 12007KT 5SM -SN BR OVC030=



000
FTUS43 KDVN 260500
TAFBRL
TAF
KBRL 260520Z 2606/2706 12004KT P6SM SKC
     FM260900 13012KT P6SM SCT070
     FM261800 10012G18KT 4SM -SHSN OVC030=



000
FTUS43 KDVN 260500
TAFCID
TAF
KCID 260520Z 2606/2706 14003KT P6SM SKC
     FM260900 13012KT P6SM BKN040
     FM261400 10012G18KT 4SM -SHSN OVC030
     FM261900 03006KT 2SM -SN BR OVC012=



000
FTUS43 KDVN 260500
TAFDBQ
TAF
KDBQ 260520Z 2606/2706 15004KT P6SM SKC
     FM261200 12012KT P6SM BKN045
     FM262100 12007KT 5SM -SN BR OVC030=



000
FTUS43 KDVN 252300
TAFCID
TAF
KCID 252320Z 2600/2624 14003KT P6SM SKC
     FM260900 13012KT P6SM BKN040
     FM261400 10012G18KT 4SM -SHSN OVC030
     FM261900 03006KT 2SM -SN BR OVC012=



000
FTUS43 KDVN 252300
TAFBRL
TAF
KBRL 252320Z 2600/2624 15003KT P6SM SKC
     FM260900 13012KT P6SM SCT070
     FM261800 10012G18KT 4SM -SHSN OVC030=



000
FTUS43 KDVN 252300
TAFMLI
TAF
KMLI 252320Z 2600/2624 12004KT P6SM SKC
     FM261200 12012KT P6SM BKN045
     FM262100 12007KT 5SM -SN BR OVC030=



000
FTUS43 KDVN 252300
TAFDBQ
TAF
KDBQ 252320Z 2600/2624 12004KT P6SM SKC
     FM261200 12012KT P6SM BKN045
     FM262100 12007KT 5SM -SN BR OVC030=



000
FTUS43 KDVN 251700
TAFCID
TAF
KCID 251724Z 2518/2618 29009KT P6SM SKC
     FM260000 15007KT P6SM SCT060
     FM260900 13012KT P6SM BKN040
     FM261400 10012G18KT 4SM -SHSN SCT020 OVC030=



000
FTUS43 KDVN 251700
TAFDBQ
TAF
KDBQ 251724Z 2518/2618 27009KT P6SM FEW015
     FM260000 VRB06KT P6SM SCT060
     FM261000 12012KT P6SM BKN045=



000
FTUS43 KDVN 251700
TAFBRL
TAF
KBRL 251724Z 2518/2618 29009KT P6SM SKC
     FM260000 15007KT P6SM SKC
     FM260900 13012KT P6SM SCT070
     FM261500 10012G18KT 4SM -SHSN OVC030=



000
FTUS43 KDVN 251700
TAFMLI
TAF
KMLI 251724Z 2518/2618 25009KT P6SM SCT015
     FM260000 VRB06KT P6SM SCT060
     FM261000 10012KT P6SM BKN045=



000
FTUS43 KDVN 251500 AAA
TAFMLI
TAF AMD
KMLI 251522Z 2515/2612 29010KT P6SM OVC015
     FM251700 27008KT P6SM FEW030
     FM260000 16004KT P6SM FEW250=



000
FTUS43 KDVN 251500 AAA
TAFBRL
TAF AMD
KBRL 251521Z 2515/2612 29008KT P6SM BKN015
     FM251700 27007KT P6SM FEW025
     FM260000 17004KT P6SM FEW250=



000
FTUS43 KDVN 251100
TAFDBQ
TAF
KDBQ 251139Z 2512/2612 29010KT P6SM -SHSN BKN020
     FM251500 27007KT P6SM FEW025
     FM260000 17005KT P6SM FEW250=



000
FTUS43 KDVN 251100
TAFCID
TAF
KCID 251139Z 2512/2612 30011KT P6SM -SHSN BKN018
     FM251230 29008KT P6SM FEW020
     FM251800 24006KT P6SM SKC
     FM260000 15005KT P6SM SCT250=



000
FTUS43 KDVN 251100
TAFMLI
TAF
KMLI 251139Z 2512/2612 29012G19KT P6SM OVC025
     FM251600 27008KT P6SM FEW030
     FM260000 16004KT P6SM FEW250=



000
FTUS43 KDVN 251100
TAFBRL
TAF
KBRL 251139Z 2512/2612 31008KT P6SM OVC020
     FM251500 27007KT P6SM FEW025
     FM260000 17004KT P6SM FEW250=



000
FTUS43 KDVN 250600 AAA
TAFMLI
TAF AMD
KMLI 250639Z 2507/2606 29015G24KT P6SM -SHSN OVC021
      TEMPO 2507/2508 5SM -SHSN BKN018
     FM250800 30012KT P6SM OVC025
     FM251500 28008KT P6SM SKC=



000
FTUS43 KDVN 250500
TAFCID
TAF
KCID 250520Z 2506/2606 31018G25KT P6SM -SHSN SCT017 OVC022
     FM250800 30016KT P6SM -SHSN OVC018
     FM251000 29012KT P6SM SCT018 BKN025
     FM251500 28009KT P6SM SCT250=



000
FTUS43 KDVN 250500
TAFDBQ
TAF
KDBQ 250520Z 2506/2606 30012G20KT P6SM -SHSN SCT015 OVC020
     FM250900 29012KT P6SM OVC020
     FM251200 29010KT P6SM BKN025
     FM251500 28009KT P6SM SKC=



000
FTUS43 KDVN 250500
TAFMLI
TAF
KMLI 250520Z 2506/2606 29014G22KT P6SM -SHSN OVC021
      TEMPO 2506/2507 5SM -SHSN BKN018
     FM250700 30012KT P6SM OVC025
     FM251500 28008KT P6SM SKC=



000
FTUS43 KDVN 250500
TAFBRL
TAF
KBRL 250520Z 2506/2606 30012G20KT P6SM OVC025
     FM250800 30011KT P6SM OVC025
     FM251300 30008KT P6SM SCT025
     FM252200 24006KT P6SM SKC=



000
FTUS43 KDVN 250200 AAA
TAFBRL
TAF AMD
KBRL 250242Z 2503/2524 28012KT P6SM OVC026
      TEMPO 2505/2508 30014G20KT 6SM -SHSN
     FM250800 30012KT P6SM OVC025
     FM251500 28008KT P6SM SKC=



000
FTUS43 KDVN 250200 AAA
TAFMLI
TAF AMD
KMLI 250241Z 2503/2524 27020G28KT P6SM -SHSN OVC022
      TEMPO 2504/2507 5SM -SHSN BKN018
     FM250700 28012KT P6SM OVC025
     FM251500 28008KT P6SM SCT025=



000
FTUS43 KDVN 250200 AAA
TAFDBQ
TAF AMD
KDBQ 250239Z 2503/2524 29018G26KT P6SM OVC019
      TEMPO 2503/2506 3SM -SHSN BKN012
     FM250600 30016KT P6SM -SHSN OVC020
     FM251200 29010KT P6SM OVC025
     FM251700 27010KT P6SM SKC=



000
FTUS43 KDVN 250200 AAA
TAFCID
TAF AMD
KCID 250237Z 2503/2524 30018G25KT P6SM OVC025
      TEMPO 2503/2506 3SM -SHSN BR BKN012
     FM250600 31016KT P6SM -SHSN OVC018
     FM250900 29013KT P6SM OVC025
     FM251500 28010KT P6SM SCT250=



000
FTUS43 KDVN 242300
TAFBRL
TAF
KBRL 242330Z 2500/2524 27014G20KT P6SM OVC029
      TEMPO 2500/2503 -SHSN
     FM250600 29010KT P6SM OVC025
     FM251500 28008KT P6SM SKC=



000
FTUS43 KDVN 242300
TAFMLI
TAF
KMLI 242330Z 2500/2524 27020G28KT 6SM -SN OVC019
      TEMPO 2500/2503 1SM -SHSN BLSN
     FM250300 28014G20KT P6SM -SHSN OVC022
     FM250700 28012KT P6SM OVC025
     FM251500 28008KT P6SM SCT025=



000
FTUS43 KDVN 242300
TAFDBQ
TAF
KDBQ 242330Z 2500/2524 29020G28KT P6SM OVC015
      TEMPO 2500/2504 6SM -SHSN BLSN
     FM250400 29016KT P6SM -SHSN OVC018
     FM251200 29010KT P6SM OVC025
     FM251700 27010KT P6SM SKC=



000
FTUS43 KDVN 242300
TAFCID
TAF
KCID 242330Z 2500/2524 29015G25KT P6SM -SHSN OVC020
      TEMPO 2502/2506 4SM -SHSN
     FM250600 30015KT P6SM -SHSN OVC018
     FM250900 29013KT P6SM OVC025
     FM251500 28010KT P6SM SCT250=



000
FTUS43 KDVN 242200 AAC
TAFCID
TAF AMD
KCID 242233Z 2423/2518 29015G25KT 3SM -SHSN BR BKN015 OVC020
      TEMPO 2423/2424 3/4SM -SN BR OVC015
     FM250000 29015G22KT P6SM -SHSN OVC018
     FM250900 29013KT P6SM OVC025
     FM251500 28010KT P6SM BKN035=



000
FTUS43 KDVN 242200 AAD
TAFMLI
TAF AMD
KMLI 242231Z 2423/2518 27022G30KT 6SM -SN BR OVC016
      TEMPO 2423/2501 1SM -SN BR OVC014
     FM250300 28014G20KT P6SM -SHSN OVC018
     FM251500 28010KT P6SM SCT025=



000
FTUS43 KDVN 242200 AAC
TAFDBQ
TAF AMD
KDBQ 242228Z 2422/2518 29018G25KT P6SM OVC011
      TEMPO 2423/2501 6SM -SHSN
     FM250300 29016KT P6SM -SHSN OVC018
     FM251500 27010KT P6SM SCT025=



000
FTUS43 KDVN 242200 AAA
TAFBRL
TAF AMD
KBRL 242225Z 2422/2518 28015G20KT P6SM OVC027
      TEMPO 2422/2424 3SM -SN BR BKN014
     FM250000 28012KT P6SM -SHSN OVC025
     FM250600 30012KT P6SM BKN035=



000
FTUS43 KDVN 242200 AAB
TAFCID
TAF AMD
KCID 242203Z 2422/2518 29015G25KT 3SM -SHSN BKN015 OVC020
      TEMPO 2422/2423 3/4SM -SN OVC015
     FM250300 30015KT P6SM VCSH BKN030
     FM250600 30012KT P6SM FEW015 SCT030=



000
FTUS43 KDVN 242100 AAC
TAFMLI
TAF AMD
KMLI 242102Z 2421/2518 27022G30KT 3SM -SHSN BR OVC020
      TEMPO 2421/2423 1/2SM SN BKN010
     FM242300 28018G28KT 6SM -SHSN BKN015 OVC025
     FM250300 30012KT P6SM SCT025 BKN035=



000
FTUS43 KDVN 242000 AAB
TAFDBQ
TAF AMD
KDBQ 242048Z 2421/2518 29018G25KT 3SM -SHSN BR BKN015 OVC025
     FM250300 30012KT P6SM FEW020 SCT030=



000
FTUS43 KDVN 242000 AAA
TAFCID
TAF AMD
KCID 242026Z 2420/2518 29015G25KT 3SM -SHSN BKN015 OVC020
      TEMPO 2420/2422 1SM -SN OVC015
     FM250300 30015KT P6SM VCSH BKN030
     FM250600 30012KT P6SM FEW015 SCT030=



000
FTUS43 KDVN 241900 AAB
TAFMLI
TAF AMD
KMLI 241954Z 2420/2518 27022G30KT 3SM -SHSN BR OVC020
      TEMPO 2420/2421 1/2SM SN BKN010
     FM242300 28018G28KT 6SM -SHSN BKN015 OVC025
     FM250300 30012KT P6SM SCT025 BKN035=



000
FTUS43 KDVN 241900 AAB
TAFMLI
TAF AMD
KMLI 241954Z 2420/2518 27022G30KT 3SM -SHSN BR OVC020
      TEMPO 2420/2421 1/2SM SN BKN010
     FM242300 28018G28KT 6SM -SHSN BKN015 OVC025
     FM250300 30012KT P6SM SCT025 BKN035=



000
FTUS43 KDVN 241900 AAA
TAFMLI
TAF AMD
KMLI 241941Z 2420/2518 27022G30KT 3SM -SHSN BR OVC020
      TEMPO 2420/2422 1SM -SN BKN010
     FM242300 28018G28KT 6SM -SHSN BKN015 OVC025
     FM250300 30012KT P6SM SCT025 BKN035=



000
FTUS43 KDVN 241900 AAA
TAFDBQ
TAF AMD
KDBQ 241912Z 2419/2518 28025G35KT P6SM OVC011
     FM242100 29018G25KT 6SM -SHSN BKN015 OVC025
     FM250600 30012KT P6SM FEW020 SCT030=



000
FTUS43 KDVN 241700 RRA
TAFMLI
TAF
KMLI 241742Z 2418/2518 27025G32KT 6SM -SHSN BR OVC015
      TEMPO 2418/2420 4SM -FZDZ
     FM242200 28018G28KT 6SM -SHSN BKN015 OVC025
     FM250300 30012KT P6SM SCT025 BKN035=



000
FTUS43 KDVN 241700 RRA
TAFDBQ
TAF
KDBQ 241742Z 2418/2518 28025G32KT 3SM -SN BR BKN010 OVC020
      TEMPO 2418/2419 1SM -SN
     FM242100 29018G25KT 6SM -SHSN BKN015 OVC025
     FM250600 30012KT P6SM FEW020 SCT030=



000
FTUS43 KDVN 241700 RRA
TAFBRL
TAF
KBRL 241742Z 2418/2518 28015G25KT P6SM -SHSN OVC025
     FM250200 30012KT P6SM BKN035=



000
FTUS43 KDVN 241700 RRA
TAFCID
TAF
KCID 241742Z 2418/2518 29025G32KT 5SM -FZDZ BR BKN010 OVC012
      TEMPO 2418/2419 2SM -FZRA
     FM242000 29015G25KT 6SM -SHSN BKN015 OVC020
     FM250300 30015KT P6SM VCSH BKN030
     FM250600 30012KT P6SM FEW015 SCT030=



000
FTUS43 KDVN 241500 AAB
TAFBRL
TAF AMD
KBRL 241518Z 2415/2512 29016G25KT P6SM OVC015
     FM241800 27015G25KT P6SM -SHSN OVC025
     FM250000 28013KT P6SM OVC035=



000
FTUS43 KDVN 241500 AAA
TAFDBQ
TAF AMD
KDBQ 241517Z 2415/2512 29020G30KT 3SM -SN BR OVC008
      TEMPO 2415/2417 3/4SM -SN BR BKN005
     FM241800 29025G32KT 4SM -SHSN OVC010
     FM250000 28018KT 5SM -SHSN BKN015
     FM250600 29014KT P6SM OVC025=



000
FTUS43 KDVN 241300 AAA
TAFBRL
TAF AMD
KBRL 241355Z 2414/2512 29016G25KT 5SM -SN BR OVC015
     FM241800 27015G25KT P6SM -SHSN OVC025
     FM250000 28013KT P6SM OVC035=



000
FTUS43 KDVN 241300 AAA
TAFMLI
TAF AMD
KMLI 241353Z 2414/2512 28020G30KT 3SM -SN BR OVC015
      TEMPO 2414/2415 3/4SM -SN BR BKN008
     FM241700 28020G30KT 4SM -SN BR OVC015
     FM242200 27015G25KT 6SM -SHSN OVC018
     FM250000 27013KT P6SM OVC025=



000
FTUS43 KDVN 241200 CCA
TAFMLI
TAF COR
KMLI 241200Z 2412/2512 29020G30KT 2SM -SN BR OVC010
      TEMPO 2412/2415 1SM -SN BR BKN008
     FM241700 28020G30KT 4SM -SN BR OVC015
     FM242200 27015G25KT 6SM -SHSN OVC018
     FM250000 27013KT P6SM OVC025=



000
FTUS43 KDVN 241100
TAFBRL
TAF
KBRL 241130Z 2412/2512 29018G28KT 2SM -SN BR OVC008
      TEMPO 2412/2414 1SM -SN BR BKN005
     FM241500 28020G30KT 4SM -SN BR OVC015
     FM241800 27015G25KT P6SM -SHSN OVC025
     FM250000 28013KT P6SM OVC035=



000
FTUS43 KDVN 241100
TAFDBQ
TAF
KDBQ 241130Z 2412/2512 30020G30KT 3SM -SN BR OVC008
      TEMPO 2412/2415 1 1/2SM -SN BR BKN005
     FM241800 29025G32KT 4SM -SHSN OVC010
     FM250000 28018KT 5SM -SHSN BKN015
     FM250600 29014KT P6SM OVC025=



000
FTUS43 KDVN 241100
TAFMLI
TAF
KMLI 241130Z 2412/2512 29020G30KT 2SM -SN BR OVC008
      TEMPO 2412/2415 1SM -SN BR BKN005
     FM241700 28020G30KT 4SM -SN BR OVC015
     FM242200 27015G25KT 6SM -SHSN OVC018
     FM250000 27013KT P6SM OVC025=



000
FTUS43 KDVN 241100
TAFCID
TAF
KCID 241130Z 2412/2512 30024G34KT 3SM -SN BR OVC010
      TEMPO 2412/2415 2SM -SN BR OVC007
     FM241700 29025G32KT 4SM -SHSN OVC012
     FM250000 29018KT 6SM -SHSN BKN025
     FM250600 30014KT P6SM OVC035=



000
FTUS43 KDVN 241000 AAA
TAFBRL
TAF AMD
KBRL 241031Z 2411/2506 30017G26KT 2SM -SN SCT007 OVC015
      TEMPO 2411/2413 1SM -SN BR BKN007
     FM241400 29018G27KT 2SM -SN BR OVC007
     FM241800 28017G26KT P6SM -SHSN OVC025
     FM250100 28012KT P6SM BKN025=



000
FTUS43 KDVN 241000 AAA
TAFCID
TAF AMD
KCID 241025Z 2410/2506 30025G32KT 3SM -SN BR SCT006 OVC010
     FM241200 30020G30KT 2SM -SN BR OVC007
     FM241700 29025G32KT 4SM -SHSN OVC012
     FM250000 29018KT P6SM -SHSN BKN025=



000
FTUS43 KDVN 240500
TAFBRL
TAF
KBRL 240526Z 2406/2506 31016G25KT 5SM BR OVC005
      TEMPO 2406/2410 4SM -RA BR SCT005 OVC012
     FM241000 30017G26KT 3SM -RASN OVC015
     FM241400 29018G27KT 2SM -SN BR OVC007
     FM241800 28017G26KT P6SM -SHSN OVC025
     FM250100 28012KT P6SM BKN025=



000
FTUS43 KDVN 240500
TAFMLI
TAF
KMLI 240526Z 2406/2506 29010KT 3SM BR OVC002
     FM240700 31016G25KT 5SM -RA BR OVC004
     FM240900 29017G27KT 3SM -RASN BR OVC004
     FM241400 29017G26KT 1SM -SN BR OVC005
     FM241900 28020G30KT 5SM -SN BR OVC015
     FM242200 27015G25KT 6SM -SHSN OVC025=



000
FTUS43 KDVN 240500
TAFCID
TAF
KCID 240526Z 2406/2506 32020G28KT 3SM -RA BR OVC006
      TEMPO 2407/2410 2SM -RASN SCT006 OVC012
     FM241000 30020G27KT 2SM -SN BR OVC004
     FM241200 30020G30KT 3SM -SN BR OVC007
     FM241700 29022G32KT 4SM -SHSN OVC012
     FM250000 29018KT P6SM -SHSN BKN025=



000
FTUS43 KDVN 240500
TAFDBQ
TAF
KDBQ 240526Z 2406/2506 31005KT 1/2SM -DZ FG VV003
      TEMPO 2406/2407 2SM -RA BR OVC003
     FM240700 32017G26KT 5SM -RA BR OVC007
     FM241100 29020G30KT 1SM -SN BR OVC004
     FM241900 28020G30KT 2SM -SN BR OVC015
     FM242300 28018G25KT 5SM -SHSN OVC015=



000
FTUS43 KDVN 240400 AAB
TAFDBQ
TAF AMD
KDBQ 240405Z 2404/2424 33005KT 1/2SM -DZ FG VV003
     FM240500 32018G27KT 3SM BR OVC004
      TEMPO 2405/2409 5SM -RA BR OVC008
     FM240900 32017G26KT 5SM -RASN OVC006
     FM241300 32020G30KT 1SM -SN BR OVC007
     FM241900 28020G30KT 4SM -SN BR OVC015=



000
FTUS43 KDVN 240400 AAB
TAFBRL
TAF AMD
KBRL 240402Z 2404/2424 32010KT 5SM BR OVC002
      TEMPO 2404/2406 3SM -RA BR OVC004
     FM240600 31020G28KT 5SM -RA BR OVC005
     FM241400 32018G27KT 1SM -SN BR OVC007
     FM241800 28017G26KT P6SM OVC025=



000
FTUS43 KDVN 240400 AAB
TAFBRL
TAF AMD
KBRL 240402Z 2404/2424 32010KT 5SM BR OVC002
      TEMPO 2404/2406 3SM -RA BR OVC004
     FM240600 31020G28KT 5SM -RA BR OVC005
     FM241400 32018G27KT 1SM -SN BR OVC007
     FM241800 28017G26KT P6SM OVC025=



000
FTUS43 KDVN 240300 AAA
TAFDBQ
TAF AMD
KDBQ 240308Z 2403/2424 00000KT 1/4SM FG VV002
     FM240400 31018G27KT 3SM -RA BR OVC004
     FM241300 32020G30KT 1SM -SN BR OVC007
     FM241900 28020G30KT 4SM -SN BR OVC015=



000
FTUS43 KDVN 240300 AAC
TAFCID
TAF AMD
KCID 240307Z 2403/2424 32020G28KT 3SM -RA BR OVC003
     FM240500 31020G30KT 5SM -RA BR OVC008
     FM241200 30020G30KT 1SM -SN BR OVC012
     FM241700 29020G30KT 4SM -SN BR OVC015=



000
FTUS43 KDVN 240100 AAA
TAFBRL
TAF AMD
KBRL 240146Z 2402/2424 23003KT 1/4SM FG VV002
      TEMPO 2402/2404 1/2SM -DZ FG OVC002
     FM240400 12003KT 2SM -DZ BR OVC002
     FM240600 31014G20KT 3SM -RA BR OVC008
     FM241400 32018G27KT 1SM -SN BR OVC007
     FM241800 28017G26KT P6SM OVC025=



000
FTUS43 KDVN 240100 AAB
TAFCID
TAF AMD
KCID 240145Z 2402/2424 31006KT 1/4SM DZ FG VV002
      TEMPO 2402/2403 1SM BR OVC002
     FM240300 32012KT 2SM -DZ BR OVC004
     FM240500 31016G22KT 3SM -RA BR OVC008
     FM241200 30020G30KT 1SM -SN BR OVC007
     FM241700 29020G30KT 4SM -SN BR OVC015=



000
FTUS43 KDVN 240000 AAA
TAFCID
TAF AMD
KCID 240034Z 2401/2424 00000KT 1/4SM -DZ FG VV002
     FM240200 32012KT 2SM -RA BR BKN004 OVC010
     FM240500 31016G22KT 3SM -RA BR OVC008
     FM241200 30020G30KT 1SM -SN BR OVC007
     FM241700 29020G30KT 4SM -SN BR OVC015=



000
FTUS43 KDVN 232300
TAFBRL
TAF
KBRL 232320Z 2400/2424 16005KT 1SM -DZ BR OVC002
     FM240100 12003KT 1/2SM -DZ FG VV002
     FM240600 31014G20KT 3SM -RA BR OVC008
     FM241400 32018G27KT 1SM -SN BR OVC007
     FM241800 28017G26KT P6SM OVC025=



000
FTUS43 KDVN 232300
TAFDBQ
TAF
KDBQ 232320Z 2400/2424 14008KT 2SM -RA BR OVC009
      TEMPO 2400/2402 1SM -DZ BR OVC004
     FM240200 14004KT 1/2SM -DZ FG OVC002
     FM240400 31016G22KT 3SM -RA BR OVC004
     FM241300 32020G30KT 1SM -SN BR OVC007
     FM241900 28020G30KT 4SM -SN BR OVC015=



000
FTUS43 KDVN 232300
TAFMLI
TAF
KMLI 232320Z 2400/2424 14006KT 2SM -DZ BR OVC008
     FM240200 12005KT 1/2SM -DZ FG OVC003
     FM240500 31014G20KT 3SM -RA BR OVC008
     FM241400 32017G26KT 1SM -SN BR OVC009
     FM241900 28020G30KT 5SM -SN BR OVC025=



000
FTUS43 KDVN 232300
TAFCID
TAF
KCID 232320Z 2400/2424 14005KT 1SM -DZ BR OVC002
      TEMPO 2400/2402 1/2SM -RA FG VV002
     FM240200 32012KT 2SM -RA BR BKN004 OVC010
     FM240500 31016G22KT 3SM -RA BR OVC008
     FM241200 30020G30KT 1SM -SN BR OVC007
     FM241700 29020G30KT 4SM -SN BR OVC015=



000
FTUS43 KDVN 232200 AAB
TAFCID
TAF AMD
KCID 232230Z 2323/2418 14005KT 1SM -DZ BR OVC002
      TEMPO 2323/2402 1/2SM -RA FG VV002
     FM240200 32012KT 2SM -RA BR BKN004 OVC010
     FM240500 31016G22KT 3SM -RA BR OVC008
     FM241000 32020G30KT 1SM -SN BR OVC007=



000
FTUS43 KDVN 232200 AAB
TAFDBQ
TAF AMD
KDBQ 232212Z 2322/2418 14007KT 2SM -RA BR SCT004 BKN014 OVC040
      TEMPO 2322/2323 1SM RA BR OVC003
     FM232300 12003KT 3/4SM -RA BR OVC003
     FM240600 31016G22KT 3SM -RADZ BR OVC008
     FM241100 32020G30KT 1SM -SN BR OVC007=



000
FTUS43 KDVN 232100 AAB
TAFBRL
TAF AMD
KBRL 232134Z 2322/2418 16006KT 4SM -RA BR OVC006
      TEMPO 2322/2323 1 1/2SM -RA BKN004 OVC008
     FM232300 14005KT 1SM -RA BR OVC004
     FM240000 12003KT 1/2SM -RADZ FG OVC003
     FM240600 31014G20KT 3SM -RA BR OVC008
     FM241200 32017G26KT 1SM -SN BR OVC007=



000
FTUS43 KDVN 232100 AAA
TAFMLI
TAF AMD
KMLI 232133Z 2322/2418 15008KT 3SM -RA BR BKN009 OVC040
      TEMPO 2322/2323 1SM RA BR SCT008 OVC015
     FM232300 13005KT 2SM -RA BR OVC008
     FM240100 12005KT 3/4SM -RADZ BR OVC005
     FM240600 31014G20KT 3SM -RA BR OVC008
     FM241200 32017G26KT 1SM -SN BR OVC007=



000
FTUS43 KDVN 232100 AAA
TAFDBQ
TAF AMD
KDBQ 232132Z 2322/2418 14007KT 2SM -RA BR BKN004 BKN014 OVC040
      TEMPO 2322/2323 1SM RA BR OVC003
     FM232300 12003KT 3/4SM -RA BR OVC003
     FM240600 31016G22KT 3SM -RADZ BR OVC008
     FM241100 32020G30KT 1SM -SN BR OVC007=



000
FTUS43 KDVN 232100 AAA
TAFDBQ
TAF AMD
KDBQ 232132Z 2322/2418 14007KT 2SM -RA BR BKN004 BKN014 OVC040
      TEMPO 2322/2323 1SM RA BR OVC003
     FM232300 12003KT 3/4SM -RA BR OVC003
     FM240600 31016G22KT 3SM -RADZ BR OVC008
     FM241100 32020G30KT 1SM -SN BR OVC007=



000
FTUS43 KDVN 232100 AAA
TAFCID
TAF AMD
KCID 232131Z 2322/2418 14006KT 4SM -RA BR OVC005
      TEMPO 2322/2323 1SM -RA BR OVC004
     FM232300 12003KT 3/4SM -RADZ BR OVC004
     FM240500 31016G22KT 3SM -RA BR OVC008
     FM241000 32020G30KT 1SM -SN BR OVC007=



000
FTUS43 KDVN 232100 AAA
TAFCID
TAF AMD
KCID 232131Z 2322/2418 14006KT 4SM -RA BR OVC005
      TEMPO 2322/2323 1SM -RA BR OVC004
     FM232300 12003KT 3/4SM -RADZ BR OVC004
     FM240500 31016G22KT 3SM -RA BR OVC008
     FM241000 32020G30KT 1SM -SN BR OVC007=



000
FTUS43 KDVN 232000 AAA
TAFBRL
TAF AMD
KBRL 232017Z 2320/2418 16007KT 4SM -RA BR SCT004 OVC009
      TEMPO 2320/2322 1 1/2SM -RA BKN004 OVC008
     FM232200 14006KT 1SM -RA BR OVC004
     FM240000 12005KT 1/2SM -RA FG OVC003
     FM240600 31014G20KT 3SM -RADZ BR OVC008
     FM241200 32017G26KT 1SM -SN BR OVC007=



000
FTUS43 KDVN 232000 AAA
TAFBRL
TAF AMD
KBRL 232017Z 2320/2418 16007KT 4SM -RA BR SCT004 OVC009
      TEMPO 2320/2322 1 1/2SM -RA BKN004 OVC008
     FM232200 14006KT 1SM -RA BR OVC004
     FM240000 12005KT 1/2SM -RA FG OVC003
     FM240600 31014G20KT 3SM -RADZ BR OVC008
     FM241200 32017G26KT 1SM -SN BR OVC007=



000
FTUS43 KDVN 231700
TAFBRL
TAF
KBRL 231720Z 2318/2418 16009KT 4SM -RA BR SCT008 BKN016 OVC080
      TEMPO 2318/2319 1 1/2SM -RA BKN009 OVC020
     FM231900 15010KT 1 1/2SM RA BR OVC010
     FM240000 12005KT 1/2SM -RA FG OVC003
     FM240600 31014G20KT 3SM -RADZ BR OVC008
     FM241200 32017G26KT 1SM -SN BR OVC007=



000
FTUS43 KDVN 231700
TAFCID
TAF
KCID 231720Z 2318/2418 15009KT 2SM -RA BR OVC005
      TEMPO 2318/2321 1SM RA BR OVC004
     FM232100 12004KT 3/4SM -RA BR OVC004
     FM240500 31016G22KT 3SM -RADZ BR OVC008
     FM241000 32020G30KT 1SM -SN BR OVC007=



000
FTUS43 KDVN 231700
TAFMLI
TAF
KMLI 231720Z 2318/2418 16010KT 5SM -RA BR BKN015 OVC040
      TEMPO 2318/2320 2SM RA BR BKN008 OVC015
     FM232000 15010KT 2SM -RA BR OVC008
     FM240000 12005KT 3/4SM -RADZ BR OVC005
     FM240600 31014G20KT 3SM -RADZ BR OVC008
     FM241200 32017G26KT 1SM -SN BR OVC007=



000
FTUS43 KDVN 231700
TAFDBQ
TAF
KDBQ 231720Z 2318/2418 16010KT 2SM -RA BR BKN004 BKN014 OVC040
      TEMPO 2318/2321 1SM RA BR OVC003
     FM232100 12004KT 3/4SM -RA BR OVC003
     FM240600 31016G22KT 3SM -RADZ BR OVC008
     FM241100 32020G30KT 1SM -SN BR OVC007=



000
FTUS43 KDVN 231700 AAC
TAFMLI
TAF AMD
KMLI 231703Z 2317/2412 17011KT 5SM -RA BR SCT009 OVC040
      TEMPO 2317/2319 2SM RA BR BKN009 OVC030
     FM231900 15010KT 1 1/2SM RA BR OVC008
     FM240100 12005KT 1/2SM -RA FG OVC003
     FM240600 30010KT 1SM -RA BR OVC004
     FM240900 32015G20KT 2SM -RA BR OVC008=



000
FTUS43 KDVN 231600 AAA
TAFBRL
TAF AMD
KBRL 231646Z 2317/2412 17010KT 4SM -RA BR FEW009 OVC050
      TEMPO 2317/2319 1 1/2SM -RA BKN009 OVC020
     FM231900 15010KT 1 1/2SM RA BR OVC010
     FM240000 12005KT 1/2SM -RA FG OVC003
     FM240600 30010KT 1SM -RA BR OVC004
     FM240900 31015G20KT 2SM -RA BR OVC008=



000
FTUS43 KDVN 231500 AAB
TAFMLI
TAF AMD
KMLI 231511Z 2315/2412 18011KT 3SM -RA BR SCT009 OVC020
      TEMPO 2315/2317 2SM RA BR OVC008
     FM231700 15010KT 1 1/2SM RA BR OVC008
     FM240100 12005KT 1/2SM -RA FG OVC003
     FM240600 30010KT 1SM -RA BR OVC004
     FM240900 32015G20KT 2SM -RA BR OVC008=



000
FTUS43 KDVN 231500 AAB
TAFDBQ
TAF AMD
KDBQ 231509Z 2315/2412 17014KT 2SM -RA BR OVC005
      TEMPO 2315/2317 4SM -RA BR BKN009 OVC018
     FM231900 14010KT 2SM RA BR OVC007
     FM240000 11006KT 1/2SM -RA FG OVC004
     FM240600 32015KT 1SM -DZ BR OVC004
     FM241000 33017G25KT 1 1/2SM -RASN BR OVC007=



    US Dept of Commerce
    National Oceanic and Atmospheric Administration
    National Weather Service
    1325 East West Highway
    Silver Spring, MD 20910
    Page Author: NWS Internet Services Team
Disclaimer
Information Quality
Credits
Glossary
Privacy Policy
Freedom of Information Act (FOIA)
About Us
Career Opportunities